Time;durP1;ratioP1;P1;durP2;ratioP2;P2;SDS_P1;SDS_P2;PMS_P1;PMS_P2;Temp;Humidity;BMP_temperature;BMP_pressure;BME280_temperature;BME280_humidity;BME280_pressure;Samples;Min_cycle;Max_cycle;Signal;HPM_P1;HPM_P2
2024/03/23 00:00:06;;;;;;;5.22;2.47;;;13.60;53.00;;;14.85;43.25;96952.91;4971237;28;20502;-58
2024/03/23 00:02:39;;;;;;;5.03;2.40;;;13.50;53.10;;;14.84;43.26;96959.28;4971235;28;20537;-59
2024/03/23 00:05:07;;;;;;;3.65;2.13;;;13.50;53.90;;;14.81;43.31;96954.34;4970572;28;20050;-59
2024/03/23 00:07:35;;;;;;;5.03;2.55;;;13.50;53.30;;;14.78;43.49;96946.72;4971101;28;20051;-59
2024/03/23 00:10:04;;;;;;;5.15;2.08;;;13.40;53.30;;;14.74;43.45;96943.63;4971109;28;20050;-58
2024/03/23 00:12:32;;;;;;;9.75;7.00;;;13.40;53.40;;;14.73;43.49;96930.41;4970618;28;20422;-59
2024/03/23 00:15:00;;;;;;;10.35;7.80;;;13.40;53.40;;;14.76;43.67;96932.69;4970835;28;20055;-58
2024/03/23 00:17:28;;;;;;;10.25;8.65;;;13.30;53.80;;;14.76;43.84;96928.16;4970788;28;20035;-58
2024/03/23 00:19:56;;;;;;;10.75;6.75;;;13.30;55.10;;;14.76;43.45;96927.34;4971039;28;20517;-59
2024/03/23 00:22:25;;;;;;;11.30;7.90;;;13.20;54.30;;;14.75;43.59;96914.97;4970454;28;20121;-59
2024/03/23 00:24:53;;;;;;;11.05;7.78;;;13.20;54.50;;;14.75;43.69;96920.31;4970935;28;20506;-58
2024/03/23 00:27:21;;;;;;;4.85;3.80;;;13.20;54.40;;;14.76;43.47;96913.94;4970944;28;20038;-58
2024/03/23 00:29:49;;;;;;;4.50;2.75;;;13.20;54.20;;;14.75;43.48;96904.25;4947301;28;20047;-59
2024/03/23 00:32:17;;;;;;;3.50;2.45;;;13.20;53.80;;;14.72;43.61;96902.00;4970560;28;20043;-59
2024/03/23 00:34:46;;;;;;;4.68;3.00;;;13.30;53.60;;;14.73;43.37;96890.22;4970764;28;20043;-59
2024/03/23 00:37:14;;;;;;;4.32;2.53;;;13.40;53.40;;;14.71;43.61;96900.31;4970860;28;20046;-58
2024/03/23 00:39:42;;;;;;;4.05;2.58;;;13.40;53.20;;;14.70;43.47;96890.66;4970834;28;20043;-59
2024/03/23 00:42:10;;;;;;;4.95;2.50;;;13.40;53.20;;;14.72;43.64;96876.00;4970440;28;20103;-59
2024/03/23 00:44:39;;;;;;;4.30;3.58;;;13.40;53.30;;;14.72;43.54;96878.69;4970720;28;20047;-59
2024/03/23 00:47:07;;;;;;;12.02;10.05;;;13.40;53.30;;;14.76;43.61;96873.75;4970774;28;20047;-59
2024/03/23 00:49:35;;;;;;;8.55;5.88;;;13.40;53.80;;;14.75;43.89;96878.28;4954570;28;20067;-59
2024/03/23 00:52:03;;;;;;;5.35;3.50;;;13.30;54.30;;;14.73;43.76;96875.00;4970379;28;20517;-59
2024/03/23 00:54:30;;;;;;;4.25;3.85;;;13.10;54.80;;;14.70;43.88;96872.72;4970632;28;20291;-58
2024/03/23 00:56:56;;;;;;;4.68;3.10;;;13.10;55.00;;;14.66;43.81;96865.31;4970684;28;20047;-59
2024/03/23 00:59:28;;;;;;;3.50;3.20;;;13.00;54.80;;;14.63;43.79;96863.03;4970726;28;20039;-59
2024/03/23 01:01:55;;;;;;;5.55;2.58;;;13.10;54.80;;;14.53;43.82;96864.22;4963139;28;20395;-59
2024/03/23 01:04:22;;;;;;;3.35;2.67;;;13.10;54.50;;;14.50;44.04;96858.44;4970619;28;20047;-59
2024/03/23 01:06:48;;;;;;;4.25;2.70;;;13.10;54.30;;;14.46;44.12;96843.81;4970669;28;20043;-59
2024/03/23 01:09:15;;;;;;;4.28;2.50;;;13.10;54.60;;;14.47;44.25;96840.13;4951648;28;20510;-59
2024/03/23 01:11:42;;;;;;;4.07;2.90;;;13.10;54.60;;;14.45;44.21;96828.81;4969231;28;20047;-59
2024/03/23 01:14:08;;;;;;;5.13;3.53;;;13.00;55.00;;;14.43;44.25;96834.34;4970638;28;20058;-59
2024/03/23 01:16:35;;;;;;;4.63;2.88;;;13.00;55.00;;;14.42;44.47;96838.06;4972418;28;20394;-59
2024/03/23 01:19:02;;;;;;;4.60;3.33;;;13.00;55.00;;;14.41;44.58;96836.41;4974689;28;20035;-60
2024/03/23 01:21:29;;;;;;;4.95;2.83;;;13.10;55.00;;;14.41;44.68;96822.22;4957959;28;20058;-59
2024/03/23 01:23:56;;;;;;;5.22;2.70;;;13.10;55.00;;;14.40;44.53;96818.69;4957960;28;20050;-59
2024/03/23 01:26:22;;;;;;;6.45;3.08;;;13.10;55.00;;;14.39;44.55;96822.41;4973635;28;20031;-59
2024/03/23 01:28:49;;;;;;;4.47;2.92;;;13.10;55.10;;;14.38;44.55;96813.56;4973734;28;20097;-59
2024/03/23 01:31:16;;;;;;;2.85;2.40;;;13.00;55.20;;;14.37;44.78;96805.72;4973613;28;20413;-59
2024/03/23 01:33:42;;;;;;;3.85;3.13;;;13.00;55.90;;;14.36;44.90;96810.28;4973723;28;20050;-59
2024/03/23 01:36:09;;;;;;;2.25;2.05;;;13.00;55.60;;;14.37;44.78;96803.06;4957702;28;20119;-59
2024/03/23 01:38:36;;;;;;;4.75;3.17;;;12.90;55.80;;;14.34;44.94;96798.91;4973681;28;20065;-60
2024/03/23 01:41:03;;;;;;;4.32;2.55;;;12.90;56.00;;;14.32;44.83;96795.63;4973282;28;20045;-59
2024/03/23 01:43:29;;;;;;;3.33;2.53;;;12.90;56.10;;;14.32;45.03;96792.13;4973346;28;20050;-59
2024/03/23 01:45:56;;;;;;;2.97;2.50;;;12.80;56.20;;;14.28;45.15;96778.31;4973581;28;20047;-59
2024/03/23 01:48:24;;;;;;;3.42;2.67;;;12.80;56.50;;;14.26;45.07;96784.94;4973428;28;20047;-59
2024/03/23 01:50:53;;;;;;;4.28;2.67;;;12.80;56.60;;;14.29;45.34;96773.81;4973057;28;20046;-59
2024/03/23 01:53:21;;;;;;;4.70;3.03;;;12.70;57.10;;;14.29;45.25;96782.66;4957571;28;20047;-59
2024/03/23 01:55:50;;;;;;;3.40;2.88;;;12.70;57.10;;;14.28;45.19;96766.81;4973379;28;20049;-58
2024/03/23 01:58:17;;;;;;;3.53;2.67;;;12.70;57.00;;;14.25;45.48;96757.34;4957414;28;20046;-59
2024/03/23 02:00:43;;;;;;;4.60;2.63;;;12.70;57.30;;;14.24;45.63;96761.03;4973124;28;20414;-59
2024/03/23 02:03:27;;;;;;;4.57;2.72;;;12.70;57.60;;;14.24;45.52;96763.72;4973258;28;20039;-59
2024/03/23 02:05:56;;;;;;;5.75;3.58;;;12.70;58.00;;;14.24;45.74;96776.28;4949712;28;20046;-59
2024/03/23 02:08:23;;;;;;;3.17;2.60;;;12.70;58.00;;;14.23;45.41;96759.41;4973176;28;20038;-60
2024/03/23 02:10:51;;;;;;;3.38;2.63;;;12.70;57.30;;;14.21;45.61;96755.25;4972497;28;20111;-60
2024/03/23 02:13:20;;;;;;;3.42;2.60;;;12.70;57.50;;;14.20;45.80;96753.63;4973065;28;20070;-59
2024/03/23 02:15:47;;;;;;;3.58;2.80;;;12.70;57.80;;;14.16;45.89;96754.03;4972682;28;20066;-59
2024/03/23 02:18:14;;;;;;;5.75;2.90;;;12.60;58.00;;;14.10;45.99;96754.84;4972800;28;20046;-59
2024/03/23 02:20:41;;;;;;;4.93;2.80;;;12.60;57.90;;;14.06;46.03;96747.44;4972641;28;20051;-59
2024/03/23 02:23:20;;;;;;;4.07;3.17;;;12.60;57.90;;;13.99;46.09;96740.22;4972431;28;20494;-59
2024/03/23 02:25:47;;;;;;;5.07;3.22;;;12.60;58.40;;;13.97;46.33;96736.91;4972715;28;20049;-60
2024/03/23 02:28:14;;;;;;;4.03;2.30;;;12.60;58.10;;;13.95;46.42;96741.66;4972209;28;20047;-59
2024/03/23 02:30:40;;;;;;;6.10;2.97;;;12.60;58.40;;;13.94;46.57;96733.84;4972646;28;20073;-59
2024/03/23 02:33:07;;;;;;;4.20;2.95;;;12.50;58.60;;;13.93;46.53;96732.19;4972345;28;20039;-59
2024/03/23 02:35:33;;;;;;;4.53;2.92;;;12.50;58.70;;;13.90;46.71;96728.09;4972306;28;20054;-58
2024/03/23 02:38:00;;;;;;;3.95;2.70;;;12.60;58.90;;;13.89;46.75;96726.44;4972526;28;20043;-59
2024/03/23 02:40:28;;;;;;;3.53;3.15;;;12.50;59.00;;;13.91;47.04;96729.72;4972509;28;20038;-58
2024/03/23 02:42:55;;;;;;;3.10;2.72;;;12.60;60.30;;;13.89;47.08;96728.28;4964385;28;20038;-58
2024/03/23 02:45:22;;;;;;;3.20;2.53;;;12.50;59.40;;;13.87;47.39;96733.03;4972462;28;20046;-59
2024/03/23 02:47:51;;;;;;;5.00;2.60;;;12.60;59.40;;;13.85;47.48;96751.94;4972314;28;20055;-58
2024/03/23 02:50:19;;;;;;;4.32;3.10;;;12.50;59.60;;;13.83;47.37;96750.50;4972365;28;20038;-58
2024/03/23 02:52:47;;;;;;;4.20;2.47;;;12.50;59.70;;;13.82;47.56;96740.81;4971781;28;20072;-59
2024/03/23 02:55:14;;;;;;;3.45;2.50;;;12.50;60.10;;;13.84;47.54;96734.25;4972211;28;20066;-59
2024/03/23 02:57:41;;;;;;;4.13;2.80;;;12.50;60.30;;;13.87;47.41;96728.47;4955786;28;20494;-58
2024/03/23 03:00:09;;;;;;;2.70;2.03;;;12.50;60.30;;;13.90;47.49;96733.44;4956317;28;20041;-58
2024/03/23 03:02:36;;;;;;;4.93;2.40;;;12.40;60.70;;;13.93;47.57;96722.31;4971620;28;20054;-59
2024/03/23 03:05:04;;;;;;;3.65;2.60;;;12.40;60.80;;;13.95;47.65;96716.75;4971999;28;20042;-58
2024/03/23 03:07:32;;;;;;;7.90;2.63;;;12.40;61.40;;;13.95;47.62;96717.56;4971940;28;20058;-59
2024/03/23 03:09:59;;;;;;;2.30;2.08;;;12.40;61.40;;;13.93;47.53;96708.94;4972024;28;20494;-59
2024/03/23 03:12:25;;;;;;;3.60;2.57;;;12.40;61.20;;;13.90;47.67;96706.69;4971555;28;20413;-58
2024/03/23 03:14:52;;;;;;;5.03;2.72;;;12.30;61.70;;;13.87;47.80;96691.03;4971775;28;20042;-58
2024/03/23 03:17:19;;;;;;;3.90;2.50;;;12.30;62.70;;;13.87;47.82;96695.56;4955328;28;20051;-58
2024/03/23 03:19:45;;;;;;;2.95;2.40;;;12.30;62.10;;;13.89;48.02;96712.22;4939688;28;20059;-58
2024/03/23 03:22:13;;;;;;;4.00;2.67;;;12.40;61.50;;;13.83;47.96;96711.19;4939219;28;20043;-58
2024/03/23 03:24:39;;;;;;;4.45;2.42;;;12.40;61.70;;;13.86;48.09;96702.78;4971520;28;20445;-58
2024/03/23 03:27:06;;;;;;;2.92;2.30;;;12.40;61.70;;;13.89;48.17;96701.53;4971667;28;20048;-58
2024/03/23 03:29:35;;;;;;;4.63;2.60;;;12.40;61.60;;;13.91;48.19;96700.28;4971590;28;20429;-63
2024/03/23 03:32:05;;;;;;;4.10;2.25;;;12.50;61.80;;;13.92;48.28;96706.47;4954972;28;20050;-57
2024/03/23 03:34:31;;;;;;;6.82;2.55;;;12.50;61.80;;;13.91;48.18;96708.31;4955522;28;20663;-58
2024/03/23 03:36:59;;;;;;;3.80;2.47;;;12.50;61.60;;;13.88;48.46;96706.06;4963696;28;20066;-58
2024/03/23 03:39:26;;;;;;;3.25;2.70;;;12.50;61.50;;;13.89;48.43;96697.00;4970663;28;20043;-58
2024/03/23 03:41:52;;;;;;;4.75;2.90;;;12.50;61.60;;;13.90;48.44;96687.13;4970944;28;20042;-58
2024/03/23 03:44:19;;;;;;;3.45;2.38;;;12.60;61.50;;;13.89;48.44;96677.47;4971444;28;20234;-59
2024/03/23 03:46:46;;;;;;;5.10;2.53;;;12.60;61.40;;;13.93;48.51;96667.97;4971256;28;20039;-58
2024/03/23 03:49:12;;;;;;;4.32;2.58;;;12.60;61.40;;;13.97;48.42;96651.28;4971347;28;20046;-57
2024/03/23 03:51:39;;;;;;;5.00;2.65;;;12.60;62.00;;;14.02;48.42;96647.22;4970920;28;20445;-58
2024/03/23 03:54:06;;;;;;;7.00;2.75;;;12.60;62.20;;;14.03;48.30;96649.66;4971259;28;20526;-58
2024/03/23 03:56:32;;;;;;;3.70;2.75;;;12.60;62.00;;;14.01;48.51;96641.00;4971210;28;20042;-59
2024/03/23 03:58:59;;;;;;;2.60;2.20;;;12.60;62.10;;;14.03;48.41;96641.63;4970918;28;20407;-58
2024/03/23 04:01:26;;;;;;;5.10;2.50;;;12.60;62.00;;;14.04;48.55;96645.16;4970836;28;20478;-58
2024/03/23 04:03:52;;;;;;;3.42;2.70;;;12.60;62.40;;;14.02;48.71;96644.53;4970967;28;20047;-58
2024/03/23 04:06:19;;;;;;;3.35;2.55;;;12.50;63.00;;;13.98;48.46;96647.59;4971206;28;20034;-58
2024/03/23 04:08:46;;;;;;;3.42;2.53;;;12.40;63.20;;;14.00;48.76;96655.44;4970993;28;20054;-59
2024/03/23 04:11:13;;;;;;;6.35;2.90;;;12.40;64.00;;;13.95;49.76;96660.56;4966890;28;20050;-58
2024/03/23 04:13:41;;;;;;;4.47;3.03;;;12.30;66.80;;;13.94;49.94;96677.66;4970835;28;20046;-57
2024/03/23 04:16:09;;;;;;;4.95;3.35;;;12.40;66.70;;;13.79;51.14;96681.34;4971154;28;20043;-58
2024/03/23 04:18:35;;;;;;;8.73;4.82;;;12.20;69.40;;;13.65;53.28;96690.41;4939130;28;20054;-56
2024/03/23 04:21:02;;;;;;;8.00;6.03;;;12.10;75.80;;;13.36;54.96;96700.44;4962809;28;20043;-51
2024/03/23 04:23:29;;;;;;;11.07;7.03;;;11.90;79.60;;;13.09;57.40;96690.66;4971027;28;20395;-52
2024/03/23 04:26:02;;;;;;;10.45;7.70;;;11.70;83.50;;;12.92;58.04;96691.00;4970826;28;20039;-55
2024/03/23 04:28:28;;;;;;;11.07;8.43;;;11.50;87.80;;;12.78;58.98;96695.44;4970932;28;20057;-56
2024/03/23 04:30:55;;;;;;;12.15;8.52;;;11.40;89.00;;;12.69;59.73;96693.16;4970380;28;20057;-55
2024/03/23 04:33:22;;;;;;;12.13;9.27;;;11.30;90.90;;;12.59;60.47;96688.16;4970945;28;20039;-51
2024/03/23 04:35:49;;;;;;;12.50;8.75;;;11.30;91.80;;;12.47;60.86;96682.56;4970763;28;20051;-53
2024/03/23 04:38:16;;;;;;;14.07;9.25;;;11.20;92.10;;;12.30;61.81;96675.88;4970705;28;20405;-55
2024/03/23 04:40:43;;;;;;;12.27;8.90;;;11.10;92.50;;;12.32;61.44;96666.66;4970578;28;20392;-55
2024/03/23 04:43:09;;;;;;;13.60;9.40;;;11.10;91.20;;;12.40;60.21;96668.34;4970710;28;20035;-54
2024/03/23 04:45:36;;;;;;;15.47;8.83;;;11.10;88.80;;;12.19;61.28;96683.41;4970783;28;20058;-54
2024/03/23 04:48:03;;;;;;;16.07;9.90;;;11.00;88.60;;;12.18;61.85;96688.94;4970618;28;20039;-53
2024/03/23 04:50:29;;;;;;;9.47;8.03;;;11.00;89.60;;;12.02;62.79;96687.41;4971153;28;20039;-54
2024/03/23 04:52:57;;;;;;;14.00;8.87;;;10.90;94.10;;;11.99;62.38;96683.25;4974243;28;20075;-55
2024/03/23 04:55:23;;;;;;;17.13;9.50;;;10.80;93.70;;;11.93;62.53;96700.03;4974354;28;20035;-51
2024/03/23 04:57:50;;;;;;;15.07;10.40;;;10.80;93.70;;;11.96;62.35;96690.81;4974181;28;20054;-54
2024/03/23 05:00:17;;;;;;;16.07;10.63;;;10.80;92.80;;;11.88;62.66;96690.94;4974417;28;20039;-53
2024/03/23 05:02:45;;;;;;;14.10;9.97;;;10.70;92.10;;;11.90;62.14;96692.41;4973791;28;20054;-51
2024/03/23 05:05:12;;;;;;;12.57;9.57;;;10.70;92.00;;;11.91;62.20;96686.06;4974280;28;20418;-55
2024/03/23 05:07:39;;;;;;;13.60;10.47;;;10.70;91.60;;;11.80;62.58;96706.03;4974197;28;20050;-55
2024/03/23 05:10:10;;;;;;;13.23;9.10;;;10.60;91.60;;;11.78;62.34;96704.59;4974197;28;20047;-56
2024/03/23 05:12:40;;;;;;;13.60;8.77;;;10.60;92.10;;;11.74;63.12;96706.00;4973856;28;20069;-56
2024/03/23 05:15:10;;;;;;;12.67;8.10;;;10.60;92.00;;;11.81;62.37;96702.38;4949562;28;20047;-56
2024/03/23 05:17:37;;;;;;;14.07;9.20;;;10.60;92.20;;;11.82;61.77;96719.19;4957796;28;20434;-56
2024/03/23 05:20:09;;;;;;;15.03;9.27;;;10.60;90.90;;;11.60;62.79;96723.72;4958121;28;20039;-55
2024/03/23 05:22:36;;;;;;;12.33;8.30;;;10.40;91.70;;;11.58;62.54;96715.91;4973547;28;20043;-53
2024/03/23 05:25:07;;;;;;;12.90;7.27;;;10.40;90.80;;;11.65;61.72;96728.47;4973757;28;20043;-56
2024/03/23 05:27:33;;;;;;;11.40;8.23;;;10.40;89.90;;;11.30;63.32;96730.97;4973853;28;20058;-54
2024/03/23 05:30:00;;;;;;;10.13;7.75;;;10.30;91.70;;;11.26;63.31;96735.84;4973685;28;20083;-55
2024/03/23 05:32:27;;;;;;;9.20;6.17;;;10.20;91.50;;;10.96;64.34;96727.91;4973326;28;20500;-53
2024/03/23 05:34:56;;;;;;;11.27;6.67;;;10.00;93.30;;;11.01;63.70;96733.53;4957600;28;20047;-54
2024/03/23 05:37:23;;;;;;;10.33;6.77;;;9.90;92.80;;;10.83;64.61;96739.22;4973760;28;20039;-51
2024/03/23 05:39:50;;;;;;;8.73;5.67;;;9.80;94.40;;;10.85;64.33;96744.34;4973440;28;20043;-54
2024/03/23 05:42:17;;;;;;;8.17;5.47;;;9.70;96.10;;;10.76;64.24;96745.47;4957144;28;20035;-52
2024/03/23 05:44:45;;;;;;;7.13;4.63;;;9.70;95.40;;;10.69;64.29;96726.75;4973400;28;20047;-52
2024/03/23 05:47:16;;;;;;;7.80;4.87;;;9.60;94.30;;;10.56;64.60;96729.22;4973613;28;20031;-50
2024/03/23 05:49:43;;;;;;;6.93;4.53;;;9.60;94.10;;;10.58;64.25;96743.16;4973550;28;20042;-49
2024/03/23 05:52:10;;;;;;;8.60;5.47;;;9.60;93.10;;;10.71;63.69;96756.66;4965130;28;20043;-52
2024/03/23 05:54:36;;;;;;;9.30;5.37;;;9.60;93.60;;;10.74;63.70;96758.97;4973413;28;20054;-52
2024/03/23 05:57:04;;;;;;;9.17;6.23;;;9.70;92.40;;;10.77;63.42;96750.59;4973259;28;20058;-52
2024/03/23 05:59:31;;;;;;;9.20;5.30;;;9.70;92.30;;;10.83;63.33;96751.72;4957033;28;20054;-55
2024/03/23 06:01:57;;;;;;;8.20;4.93;;;9.80;91.00;;;10.83;63.77;96757.84;4972152;28;20502;-51
2024/03/23 06:04:24;;;;;;;8.23;4.97;;;9.70;92.40;;;10.84;63.43;96753.38;4956873;28;20050;-52
2024/03/23 06:06:54;;;;;;;7.73;5.17;;;9.70;92.00;;;10.83;63.15;96759.69;4973163;28;20049;-54
2024/03/23 06:09:21;;;;;;;6.50;4.40;;;9.70;92.20;;;10.70;63.61;96762.16;4973261;28;20422;-50
2024/03/23 06:11:48;;;;;;;6.13;4.17;;;9.70;92.30;;;10.70;63.79;96772.81;4972562;28;20046;-54
2024/03/23 06:14:15;;;;;;;5.50;3.90;;;9.60;93.30;;;10.61;63.89;96772.91;4956367;28;20469;-53
2024/03/23 06:16:42;;;;;;;9.17;4.33;;;9.50;92.10;;;10.73;63.58;96785.78;4972961;28;20047;-50
2024/03/23 06:19:08;;;;;;;5.23;3.57;;;9.50;92.40;;;10.61;63.54;96775.56;4972946;28;20502;-52
2024/03/23 06:21:35;;;;;;;4.57;3.20;;;9.50;91.00;;;10.69;63.07;96797.81;4972496;28;20038;-51
2024/03/23 06:24:02;;;;;;;5.10;3.30;;;9.50;91.90;;;10.57;63.08;96781.47;4956416;28;20046;-50
2024/03/23 06:26:28;;;;;;;3.70;2.30;;;9.40;90.90;;;10.42;63.27;96792.88;4973056;28;20422;-51
2024/03/23 06:28:56;;;;;;;3.70;2.57;;;9.30;89.20;;;10.31;64.04;96805.81;4972758;28;20519;-53
2024/03/23 06:31:22;;;;;;;3.13;2.20;;;9.20;92.30;;;10.34;63.49;96835.53;4972329;28;20453;-53
2024/03/23 06:33:49;;;;;;;3.90;2.60;;;9.20;90.80;;;10.41;62.87;96831.16;4972505;28;20055;-52
2024/03/23 06:36:15;;;;;;;2.53;2.00;;;9.30;90.40;;;10.33;63.33;96831.25;4972711;28;20047;-51
2024/03/23 06:38:42;;;;;;;3.30;2.10;;;9.20;89.40;;;10.40;62.65;96863.25;4972494;28;20383;-52
2024/03/23 06:41:09;;;;;;;2.93;1.90;;;9.20;89.00;;;10.48;62.02;96843.75;4971568;28;20050;-50
2024/03/23 06:43:36;;;;;;;2.57;1.77;;;9.20;88.40;;;10.61;61.88;96849.28;4972460;28;20046;-48
2024/03/23 06:46:06;;;;;;;1.50;1.30;;;9.40;87.90;;;10.69;61.65;96883.81;4972317;28;20517;-47
2024/03/23 06:48:33;;;;;;;1.80;1.33;;;9.50;86.80;;;10.58;61.32;96881.56;4972405;28;20038;-47
2024/03/23 06:50:59;;;;;;;2.07;1.20;;;9.40;86.10;;;10.54;60.83;96865.13;4955880;28;20046;-50
2024/03/23 06:53:26;;;;;;;1.80;1.17;;;9.40;86.10;;;10.50;60.84;96868.34;4972513;28;20039;-47
2024/03/23 06:55:55;;;;;;;1.27;1.07;;;9.30;85.00;;;10.49;60.83;96880.81;4972014;28;20046;-47
2024/03/23 06:58:24;;;;;;;1.70;1.07;;;9.20;84.90;;;10.36;60.66;96909.88;4956143;28;20055;-48
2024/03/23 07:00:51;;;;;;;1.03;0.90;;;9.10;83.70;;;10.27;61.02;96892.28;4971691;28;20425;-48
2024/03/23 07:03:18;;;;;;;1.13;1.00;;;9.00;85.40;;;10.29;61.09;96901.72;4956124;28;20038;-50
2024/03/23 07:05:46;;;;;;;2.60;1.07;;;9.00;85.00;;;10.23;60.82;96905.09;4972103;28;20039;-52
2024/03/23 07:08:12;;;;;;;1.13;1.03;;;8.90;84.80;;;10.17;60.74;96919.94;4955711;28;20036;-48
2024/03/23 07:10:40;;;;;;;1.33;1.10;;;8.90;85.30;;;10.19;61.09;96917.09;4970503;28;20051;-48
2024/03/23 07:13:07;;;;;;;1.10;0.90;;;8.90;85.70;;;10.19;61.10;96914.44;4970001;28;20047;-49
2024/03/23 07:15:34;;;;;;;1.23;1.13;;;8.90;86.10;;;10.06;60.96;96899.03;4955661;28;20054;-48
2024/03/23 07:18:00;;;;;;;1.70;1.00;;;8.90;85.30;;;10.02;61.12;96909.22;4971812;28;20057;-50
2024/03/23 07:20:29;;;;;;;1.30;1.20;;;8.80;85.00;;;10.07;61.07;96915.84;4955805;28;20065;-48
2024/03/23 07:22:56;;;;;;;1.50;1.10;;;8.80;84.80;;;10.00;60.97;96915.72;4971285;28;20050;-53
2024/03/23 07:25:23;;;;;;;0.87;0.80;;;8.80;85.20;;;9.99;61.01;96930.03;4955850;28;20047;-51
2024/03/23 07:27:49;;;;;;;1.10;0.90;;;8.70;85.40;;;9.92;60.94;96931.72;4971335;28;20042;-49
2024/03/23 07:30:16;;;;;;;1.20;1.10;;;8.70;85.70;;;9.97;60.82;96935.50;4971371;28;20043;-48
2024/03/23 07:32:45;;;;;;;1.27;1.10;;;8.70;85.80;;;10.12;60.73;96927.63;4971270;28;20498;-48
2024/03/23 07:35:11;;;;;;;1.10;1.00;;;8.80;85.50;;;10.04;61.05;96933.81;4970968;28;20090;-48
2024/03/23 07:37:38;;;;;;;1.87;1.00;;;8.80;85.50;;;9.91;61.54;96936.22;4955677;28;20047;-48
2024/03/23 07:40:06;;;;;;;1.00;1.00;;;8.70;86.60;;;9.89;62.17;96959.50;4955162;28;20043;-46
2024/03/23 07:42:32;;;;;;;1.40;1.00;;;8.70;87.70;;;10.01;61.49;96971.38;4971159;28;20238;-46
2024/03/23 07:44:59;;;;;;;1.07;0.97;;;8.80;86.40;;;10.08;61.31;96984.84;4970912;28;20045;-47
2024/03/23 07:47:26;;;;;;;1.00;0.90;;;8.80;86.00;;;9.84;61.59;96986.56;4955433;28;20051;-51
2024/03/23 07:49:53;;;;;;;1.07;0.97;;;8.70;86.20;;;9.60;62.83;97006.13;4971433;28;20059;-49
2024/03/23 07:52:20;;;;;;;1.40;1.20;;;8.40;88.90;;;9.56;63.24;97022.56;4963150;28;20425;-47
2024/03/23 07:54:47;;;;;;;1.07;0.97;;;8.40;91.50;;;9.46;63.73;97022.75;4955414;28;20046;-50
2024/03/23 07:57:13;;;;;;;1.50;0.90;;;8.20;94.70;;;9.33;64.53;97036.56;4971263;28;20054;-46
2024/03/23 07:59:40;;;;;;;1.13;0.97;;;8.20;94.00;;;9.16;64.31;97027.78;4960265;28;20038;-42
2024/03/23 08:02:07;;;;;;;0.70;0.70;;;8.00;91.10;;;9.23;64.28;97052.69;4970705;28;20050;-42
2024/03/23 08:04:33;;;;;;;2.77;1.30;;;8.10;92.40;;;9.34;63.74;97050.66;4955025;28;20038;-43
2024/03/23 08:07:00;;;;;;;1.03;0.83;;;8.10;91.60;;;9.27;63.54;97026.63;4971028;28;20517;-43
2024/03/23 08:09:27;;;;;;;2.20;1.13;;;8.10;91.30;;;9.14;63.73;97040.38;4971071;28;20042;-42
2024/03/23 08:11:53;;;;;;;1.07;0.97;;;8.00;90.60;;;9.32;63.38;97039.38;4970630;28;20041;-43
2024/03/23 08:14:20;;;;;;;1.63;1.00;;;8.10;90.50;;;9.27;62.91;97046.03;4970143;28;20039;-43
2024/03/23 08:16:49;;;;;;;0.90;0.77;;;8.00;87.90;;;9.30;62.20;97050.16;4971008;28;20042;-43
2024/03/23 08:19:15;;;;;;;0.93;0.90;;;8.00;86.40;;;9.35;61.62;97069.09;4970896;28;20035;-42
2024/03/23 08:21:42;;;;;;;1.53;0.87;;;8.00;85.80;;;9.35;61.21;97089.53;4970649;28;20046;-44
2024/03/23 08:24:09;;;;;;;0.63;0.63;;;8.10;85.80;;;9.38;61.32;97091.84;4970571;28;20058;-43
2024/03/23 08:26:37;;;;;;;0.73;0.73;;;8.10;86.50;;;9.51;61.26;97086.84;4973338;28;20157;-41
2024/03/23 08:29:04;;;;;;;1.00;0.83;;;8.30;86.30;;;9.44;61.44;97092.00;4974888;28;20042;-45
2024/03/23 08:31:30;;;;;;;1.00;0.90;;;8.20;85.50;;;9.51;61.44;97099.31;4974623;28;20049;-42
2024/03/23 08:33:57;;;;;;;3.70;1.10;;;8.20;85.10;;;9.51;60.27;97105.44;4958924;28;20054;-41
2024/03/23 08:36:24;;;;;;;2.83;1.10;;;8.20;82.40;;;9.59;59.96;97110.75;4951095;28;20058;-42
2024/03/23 08:38:53;;;;;;;2.03;1.13;;;8.30;82.30;;;9.63;60.29;97132.50;4958945;28;20047;-42
2024/03/23 08:41:20;;;;;;;2.60;1.33;;;8.30;83.00;;;9.44;60.43;97139.84;4974196;28;20046;-43
2024/03/23 08:55:54;;;;;;;3.83;2.73;;;8.10;84.20;;;9.14;61.86;97159.88;5088863;27;20385;-53
2024/03/23 08:58:22;;;;;;;5.90;2.37;;;8.20;83.90;;;9.02;61.45;97162.03;5050862;28;20044;-53
2024/03/23 09:00:49;;;;;;;4.70;2.20;;;7.90;84.00;;;9.02;61.28;97167.34;5050762;28;20041;-51
2024/03/23 09:03:15;;;;;;;3.27;2.20;;;7.90;85.80;;;9.02;61.28;97164.69;5050830;28;20044;-51
2024/03/23 09:05:42;;;;;;;4.13;2.10;;;7.80;87.00;;;8.84;61.84;97170.13;5051203;28;20041;-50
2024/03/23 09:08:09;;;;;;;6.17;3.13;;;7.60;86.00;;;8.81;61.78;97170.44;5050845;28;20390;-51
2024/03/23 09:10:39;;;;;;;4.07;2.20;;;7.60;87.00;;;8.97;61.92;97182.91;5051018;28;20381;-52
2024/03/23 09:13:06;;;;;;;3.77;2.50;;;7.70;87.20;;;8.96;61.43;97183.94;5050484;28;20500;-53
2024/03/23 09:15:46;;;;;;;2.87;2.13;;;7.70;86.20;;;9.00;60.86;97187.09;5034231;28;20041;-49
2024/03/23 09:18:13;;;;;;;3.03;2.20;;;7.70;84.80;;;9.02;60.58;97187.75;5048227;28;20049;-49
2024/03/23 09:20:39;;;;;;;5.20;3.17;;;7.70;82.90;;;9.12;60.34;97188.44;5046471;28;20040;-48
2024/03/23 09:23:06;;;;;;;6.03;4.43;;;7.80;83.30;;;9.22;60.40;97191.78;5066719;28;20040;-51
2024/03/23 09:25:39;;;;;;;4.73;3.20;;;7.90;83.80;;;9.28;59.65;97206.22;5050734;28;20040;-49
2024/03/23 09:28:08;;;;;;;4.37;2.60;;;7.90;82.10;;;9.39;59.97;97203.25;5050488;28;20037;-50
2024/03/23 09:30:36;;;;;;;4.60;2.47;;;8.00;83.30;;;9.30;59.57;97206.88;5034211;28;20291;-50
2024/03/23 09:33:03;;;;;;;7.30;3.27;;;8.00;81.00;;;9.37;58.90;97202.59;5058211;28;20041;-51
2024/03/23 09:35:30;;;;;;;4.60;2.37;;;8.00;80.60;;;9.49;59.22;97212.91;5025855;28;20696;-50
2024/03/23 09:37:57;;;;;;;4.13;2.30;;;8.20;82.10;;;9.51;59.59;97197.63;5050440;28;20037;-52
2024/03/23 09:40:23;;;;;;;6.93;3.40;;;8.20;82.50;;;9.57;59.22;97196.97;5066844;28;20045;-53
2024/03/23 09:42:53;;;;;;;7.93;2.77;;;8.30;81.20;;;9.73;59.20;97199.63;5049698;28;20520;-49
2024/03/23 09:45:29;;;;;;;5.43;2.67;;;8.40;80.80;;;9.83;58.49;97194.97;5049944;28;20045;-52
2024/03/23 09:47:56;;;;;;;5.83;2.90;;;8.60;79.40;;;9.97;58.45;97190.78;5055737;28;20041;-51
2024/03/23 09:50:23;;;;;;;5.30;2.73;;;8.70;79.10;;;10.13;58.09;97184.59;5032529;28;20054;-48
2024/03/23 09:52:50;;;;;;;5.20;3.63;;;8.80;78.60;;;10.21;58.25;97187.25;5049552;28;20060;-50
2024/03/23 09:55:17;;;;;;;3.20;2.60;;;8.80;77.60;;;10.32;56.35;97187.94;5044410;28;20076;-53
2024/03/23 09:57:43;;;;;;;4.73;2.60;;;8.90;75.80;;;10.30;56.29;97187.25;5036801;28;20045;-53
2024/03/23 10:00:12;;;;;;;6.00;3.40;;;8.90;73.50;;;10.27;55.58;97187.56;5019990;28;20404;-54
2024/03/23 10:02:39;;;;;;;10.37;3.90;;;8.80;73.20;;;10.38;55.77;97192.56;5036347;28;20041;-53
2024/03/23 10:05:23;;;;;;;4.47;2.70;;;8.90;71.80;;;10.38;54.99;97184.59;5036130;28;20037;-53
2024/03/23 10:07:50;;;;;;;8.80;3.65;;;8.90;71.60;;;10.52;55.59;97189.19;5030860;28;20051;-54
2024/03/23 10:10:18;;;;;;;6.73;3.13;;;9.10;75.20;;;10.49;54.15;97173.56;5036573;28;20048;-49
2024/03/23 10:12:53;;;;;;;7.80;3.20;;;9.00;69.80;;;10.45;53.94;97180.25;5032419;28;20037;-54
2024/03/23 10:15:25;;;;;;;9.77;4.00;;;9.10;70.30;;;10.54;54.13;97176.53;5020335;28;20067;-50
2024/03/23 10:17:52;;;;;;;7.03;3.97;;;9.10;70.90;;;10.47;51.61;97190.69;5020251;28;20045;-52
2024/03/23 10:20:23;;;;;;;8.50;3.27;;;9.10;64.50;;;10.14;51.09;97180.97;5036009;28;20040;-52
2024/03/23 10:22:53;;;;;;;7.93;3.90;;;8.90;63.00;;;10.23;51.47;97184.41;5019481;28;20389;-51
2024/03/23 10:25:23;;;;;;;6.90;3.73;;;8.90;64.50;;;10.08;49.88;97181.63;5035930;28;20041;-52
2024/03/23 10:27:59;;;;;;;9.03;4.27;;;8.80;62.20;;;9.95;50.65;97179.50;5035900;28;20029;-51
2024/03/23 10:30:27;;;;;;;4.27;3.20;;;8.70;63.70;;;10.15;51.03;97187.09;5035915;28;20520;-52
2024/03/23 10:33:10;;;;;;;8.43;4.40;;;8.80;64.10;;;10.26;51.68;97208.03;5035486;28;20045;-52
2024/03/23 10:35:38;;;;;;;6.93;3.60;;;8.90;65.40;;;10.07;50.76;97241.13;5028297;28;20051;-53